AYNZ/LAE METAR and TAF weather

Enter ICAO airport designator
Station Type Date Time Source
AYNZ METAR 2018/12/12 08:00 UTC NOAA

AYNZ 120800Z 11020KT 9999 HZ SCT045 34/22 Q1006 RMK


Station Type Date Time Source
AYNZ Decoded METAR 2018/12/12 08:00 UTC NOAA

Station name not available
Dec 12, 2018 - 03:00 AM EST / 2018.12.12 0800 UTC
Wind: from the ESE (110 degrees) at 23 MPH (20 KT):0
Visibility: greater than 7 mile(s):0
Sky conditions: partly cloudy
Weather: haze
Temperature: 93 F (34 C)
Heat index: 100.0 F (37.8 C):1
Dew Point: 71 F (22 C)
Relative Humidity: 49%
Pressure (altimeter): 29.71 in. Hg (1006 hPa)
ob: AYNZ 120800Z 11020KT 9999 HZ SCT045 34/22 Q1006 RMK
cycle: 8

Station Type Date Time Source
AYNZ TAF 2015/08/19 08:15 UTC NOAA

TAF AYNZ 190550Z 1908/1920 09015KT 9999 SCT020 SCT120
FM191400 VRB03KT 9999 BKN040 Q 1011 1014 1013 1010


Example: see airport list